createdAt,value
2018-04-25T00:00:30.103Z,12.60
2018-04-25T00:02:56.402Z,12.50
2018-04-25T00:05:22.753Z,12.40
2018-04-25T00:07:49.039Z,12.40
2018-04-25T00:10:16.142Z,12.40
2018-04-25T00:12:42.359Z,12.40
2018-04-25T00:15:08.671Z,12.30
2018-04-25T00:17:34.888Z,12.20
2018-04-25T00:20:01.253Z,12.20
2018-04-25T00:22:27.894Z,12.20
2018-04-25T00:24:54.268Z,12.10
2018-04-25T00:27:21.246Z,12.00
2018-04-25T00:29:47.476Z,12.00
2018-04-25T00:32:14.603Z,11.90
2018-04-25T00:34:40.920Z,11.90
2018-04-25T00:37:07.871Z,11.80
2018-04-25T00:39:34.081Z,11.80
2018-04-25T00:42:01.194Z,11.70
2018-04-25T00:44:27.557Z,11.70
2018-04-25T00:46:53.916Z,11.70
2018-04-25T00:49:20.453Z,11.80
2018-04-25T00:51:46.738Z,11.90
2018-04-25T00:54:13.655Z,12.00
2018-04-25T00:56:39.991Z,12.00
2018-04-25T00:59:06.141Z,12.00
2018-04-25T01:01:32.436Z,12.00
2018-04-25T01:03:58.782Z,12.10
2018-04-25T01:06:26.850Z,12.00
2018-04-25T01:08:53.041Z,12.10
2018-04-25T01:11:19.434Z,12.10
2018-04-25T01:16:19.694Z,12.20
2018-04-25T01:18:46.198Z,12.20
2018-04-25T01:21:14.316Z,12.20
2018-04-25T01:23:40.764Z,12.20
2018-04-25T01:26:07.331Z,12.20
2018-04-25T01:28:39.494Z,12.20
2018-04-25T01:31:08.585Z,12.20
2018-04-25T01:36:31.792Z,12.20
2018-04-25T01:39:01.623Z,12.20
2018-04-25T01:41:27.879Z,12.20
2018-04-25T01:43:54.143Z,12.20
2018-04-25T01:46:21.201Z,12.00
2018-04-25T01:51:55.711Z,11.90
2018-04-25T01:54:34.465Z,11.90
2018-04-25T01:57:13.925Z,11.60
2018-04-25T01:59:52.590Z,11.60
2018-04-25T02:02:18.748Z,11.50
2018-04-25T02:04:45.836Z,11.30
2018-04-25T02:07:12.132Z,11.30
2018-04-25T02:09:39.028Z,11.20
2018-04-25T02:12:05.251Z,11.10
2018-04-25T02:14:31.576Z,11.00
2018-04-25T02:16:57.951Z,11.00
2018-04-25T02:19:24.167Z,10.90
2018-04-25T02:21:51.174Z,10.70
2018-04-25T02:24:17.560Z,10.60
2018-04-25T02:26:43.854Z,10.60
2018-04-25T02:29:10.066Z,10.50
2018-04-25T02:31:36.277Z,10.60
2018-04-25T02:34:02.562Z,10.60
2018-04-25T02:36:29.793Z,10.70
2018-04-25T02:38:56.823Z,10.80
2018-04-25T02:41:22.997Z,10.80
2018-04-25T02:43:49.209Z,10.90
2018-04-25T02:46:16.215Z,11.10
2018-04-25T02:48:42.514Z,11.10
2018-04-25T02:51:08.713Z,11.20
2018-04-25T02:53:35.889Z,11.40
2018-04-25T02:56:02.163Z,11.40
2018-04-25T02:58:28.495Z,11.50
2018-04-25T03:00:54.836Z,11.60
2018-04-25T03:03:21.937Z,11.50
2018-04-25T03:05:48.165Z,11.50
2018-04-25T03:08:14.375Z,11.40
2018-04-25T03:10:40.693Z,11.30
2018-04-25T03:13:07.493Z,11.20
2018-04-25T03:15:33.756Z,11.10
2018-04-25T03:18:00.098Z,11.00
2018-04-25T03:20:26.301Z,11.00
2018-04-25T03:22:53.313Z,10.90
2018-04-25T03:25:19.641Z,10.90
2018-04-25T03:27:45.901Z,10.90
2018-04-25T03:30:12.969Z,10.90
2018-04-25T03:32:39.757Z,10.90
2018-04-25T03:35:05.902Z,10.90
2018-04-25T03:37:32.145Z,11.00
2018-04-25T03:39:59.069Z,10.80
2018-04-25T03:42:26.485Z,10.70
2018-04-25T03:44:52.864Z,10.60
2018-04-25T03:47:19.815Z,10.40
2018-04-25T03:49:46.751Z,10.20
2018-04-25T03:52:13.037Z,10.20
2018-04-25T03:54:39.306Z,10.10
2018-04-25T03:57:05.489Z,10.00
2018-04-25T03:59:31.841Z,9.80
2018-04-25T04:01:58.075Z,9.70
2018-04-25T04:04:24.541Z,9.50
2018-04-25T04:06:51.519Z,9.30
2018-04-25T04:09:17.938Z,9.30
2018-04-25T04:11:44.254Z,9.30
2018-04-25T04:14:11.301Z,9.20
2018-04-25T04:16:37.680Z,9.20
2018-04-25T04:19:03.946Z,9.30
2018-04-25T04:21:31.044Z,9.30
2018-04-25T04:23:57.494Z,9.30
2018-04-25T04:26:23.980Z,9.40
2018-04-25T04:28:50.357Z,9.30
2018-04-25T04:31:16.630Z,9.30
2018-04-25T04:33:43.701Z,9.20
2018-04-25T04:36:09.998Z,9.20
2018-04-25T04:38:37.038Z,9.30
2018-04-25T04:41:04.108Z,9.30
2018-04-25T04:43:30.435Z,9.30
2018-04-25T04:45:56.736Z,9.40
2018-04-25T04:48:23.794Z,9.50
2018-04-25T04:50:50.966Z,9.60
2018-04-25T04:53:17.330Z,9.60
2018-04-25T04:55:43.624Z,9.70
2018-04-25T04:58:09.967Z,9.80
2018-04-25T05:00:36.281Z,9.90
2018-04-25T05:03:02.872Z,9.90
2018-04-25T05:05:29.369Z,9.90
2018-04-25T05:07:55.781Z,10.00
2018-04-25T05:10:22.253Z,10.00
2018-04-25T05:12:48.524Z,10.00
2018-04-25T05:15:15.591Z,10.20
2018-04-25T05:17:42.001Z,10.20
2018-04-25T05:20:09.151Z,10.30
2018-04-25T05:22:36.565Z,10.40
2018-04-25T05:25:08.040Z,10.40
2018-04-25T05:27:35.139Z,10.50
2018-04-25T05:30:01.405Z,10.50
2018-04-25T05:32:27.821Z,10.60
2018-04-25T05:34:54.132Z,10.60
2018-04-25T05:37:20.683Z,10.70
2018-04-25T05:39:46.965Z,11.00
2018-04-25T05:42:13.330Z,11.20
2018-04-25T05:44:39.780Z,11.40
2018-04-25T05:47:06.236Z,11.70
2018-04-25T05:49:32.678Z,12.10
2018-04-25T05:51:59.788Z,13.10
2018-04-25T05:54:26.135Z,13.10
2018-04-25T05:56:52.556Z,13.80
2018-04-25T05:59:18.868Z,14.60
2018-04-25T06:01:45.136Z,15.10
2018-04-25T06:04:11.403Z,15.20
2018-04-25T06:06:37.746Z,15.00
2018-04-25T06:09:03.986Z,14.80
2018-04-25T06:11:30.320Z,14.80
2018-04-25T06:13:56.866Z,15.20
2018-04-25T06:16:23.327Z,15.70
2018-04-25T06:18:50.492Z,16.90
2018-04-25T06:21:18.482Z,17.50
2018-04-25T06:23:44.794Z,17.50
2018-04-25T06:26:11.482Z,18.30
2018-04-25T06:28:37.879Z,18.50
2018-04-25T06:31:04.210Z,18.30
2018-04-25T06:33:30.801Z,18.10
2018-04-25T06:35:57.077Z,18.00
2018-04-25T06:38:23.270Z,18.00
2018-04-25T06:40:50.378Z,18.30
2018-04-25T06:43:16.652Z,18.30
2018-04-25T06:45:43.675Z,19.50
2018-04-25T06:48:10.082Z,19.40
2018-04-25T06:50:36.438Z,19.60
2018-04-25T06:53:03.440Z,18.70
2018-04-25T06:55:29.770Z,18.70
2018-04-25T06:57:56.097Z,18.30
2018-04-25T07:00:22.858Z,17.90
2018-04-25T07:02:49.393Z,17.40
2018-04-25T07:05:15.661Z,17.10
2018-04-25T07:07:41.891Z,17.00
2018-04-25T07:10:09.146Z,16.40
2018-04-25T07:12:35.500Z,16.40
2018-04-25T07:15:01.710Z,16.30
2018-04-25T07:17:27.929Z,16.10
2018-04-25T07:19:54.955Z,16.00
2018-04-25T07:22:21.238Z,16.00
2018-04-25T07:24:47.485Z,15.90
2018-04-25T07:27:13.915Z,15.90
2018-04-25T07:29:40.130Z,15.90
2018-04-25T07:32:06.523Z,15.80
2018-04-25T07:34:33.453Z,15.70
2018-04-25T07:37:00.591Z,15.70
2018-04-25T07:39:26.953Z,15.70
2018-04-25T07:41:53.275Z,15.80
2018-04-25T07:44:20.268Z,15.90
2018-04-25T07:46:46.705Z,15.90
2018-04-25T07:49:12.984Z,15.90
2018-04-25T07:51:39.260Z,15.80
2018-04-25T07:54:05.695Z,15.60
2018-04-25T07:56:32.672Z,15.40
2018-04-25T07:58:59.682Z,15.40
2018-04-25T08:01:25.977Z,15.40
2018-04-25T08:03:52.238Z,15.30
2018-04-25T08:06:18.468Z,15.30
2018-04-25T08:08:44.702Z,15.30
2018-04-25T08:11:11.090Z,15.20
2018-04-25T08:13:50.532Z,15.20
2018-04-25T08:16:29.415Z,15.20
2018-04-25T08:19:09.152Z,15.40
2018-04-25T08:21:40.483Z,15.40
2018-04-25T08:24:06.729Z,15.50
2018-04-25T08:26:33.874Z,15.70
2018-04-25T08:29:00.190Z,15.70
2018-04-25T08:31:26.630Z,15.70
2018-04-25T08:33:53.005Z,15.70
2018-04-25T08:36:19.279Z,15.80
2018-04-25T08:38:45.524Z,15.80
2018-04-25T08:41:12.646Z,15.80
2018-04-25T08:43:38.903Z,15.80
2018-04-25T08:46:05.266Z,15.80
2018-04-25T08:48:31.593Z,15.90
2018-04-25T08:50:58.047Z,15.90
2018-04-25T08:53:24.585Z,16.10
2018-04-25T08:56:05.883Z,16.20
2018-04-25T08:58:32.149Z,16.30
2018-04-25T09:00:59.139Z,16.50
2018-04-25T09:03:25.327Z,16.50
2018-04-25T09:05:52.534Z,16.60
2018-04-25T09:08:19.584Z,16.60
2018-04-25T09:10:46.517Z,16.60
2018-04-25T09:13:13.810Z,16.80
2018-04-25T09:15:41.258Z,16.70
2018-04-25T09:18:08.333Z,16.70
2018-04-25T09:20:34.831Z,16.70
2018-04-25T09:23:00.995Z,16.70
2018-04-25T09:25:27.327Z,16.70
2018-04-25T09:27:53.538Z,16.60
2018-04-25T09:30:20.909Z,16.40
2018-04-25T09:32:47.233Z,16.40
2018-04-25T09:35:13.525Z,16.30
2018-04-25T09:37:39.981Z,16.30
2018-04-25T09:40:06.999Z,16.30
2018-04-25T09:42:33.157Z,16.30
2018-04-25T09:44:59.433Z,16.60
2018-04-25T09:47:25.740Z,16.70
2018-04-25T09:49:52.099Z,16.90
2018-04-25T09:52:18.278Z,17.20
2018-04-25T09:54:44.595Z,17.30
2018-04-25T09:57:11.642Z,17.80
2018-04-25T09:59:38.716Z,18.30
2018-04-25T10:02:05.007Z,18.30
2018-04-25T10:04:31.313Z,18.60
2018-04-25T10:06:57.579Z,18.80
2018-04-25T10:09:24.588Z,19.30
2018-04-25T10:11:51.757Z,19.30
2018-04-25T10:14:18.803Z,19.40
2018-04-25T10:16:45.877Z,19.80
2018-04-25T10:19:12.253Z,19.70
2018-04-25T10:21:38.531Z,19.80
2018-04-25T10:24:05.703Z,19.90
2018-04-25T10:26:32.191Z,19.90
2018-04-25T10:28:59.839Z,20.10
2018-04-25T10:31:26.228Z,20.30
2018-04-25T10:33:52.568Z,20.60
2018-04-25T10:36:19.944Z,20.70
2018-04-25T10:38:46.268Z,20.80
2018-04-25T10:41:12.539Z,20.50
2018-04-25T10:43:39.466Z,20.20
2018-04-25T10:46:05.688Z,20.20
2018-04-25T10:48:31.929Z,19.70
2018-04-25T10:50:59.047Z,18.70
2018-04-25T10:53:25.277Z,18.70
2018-04-25T10:55:51.696Z,18.10
2018-04-25T10:58:18.042Z,17.90
2018-04-25T11:00:44.369Z,17.80
2018-04-25T11:03:11.137Z,17.70
2018-04-25T11:05:38.210Z,17.40
2018-04-25T11:08:04.569Z,17.40
2018-04-25T11:10:30.918Z,17.40
2018-04-25T11:12:57.227Z,17.30
2018-04-25T11:15:23.587Z,17.20
2018-04-25T11:17:50.018Z,17.10
2018-04-25T11:20:16.315Z,17.00
2018-04-25T11:22:50.144Z,16.90
2018-04-25T11:25:16.415Z,16.90
2018-04-25T11:27:43.447Z,16.60
2018-04-25T11:30:10.664Z,16.30
2018-04-25T11:32:37.457Z,16.30
2018-04-25T11:35:04.281Z,16.20
2018-04-25T11:37:31.393Z,16.00
2018-04-25T11:39:58.845Z,16.00
2018-04-25T11:42:25.650Z,16.00
2018-04-25T11:44:52.059Z,16.00
2018-04-25T11:47:19.184Z,16.30
2018-04-25T11:49:45.301Z,16.30
2018-04-25T11:52:11.651Z,16.60
2018-04-25T11:54:37.895Z,16.90
2018-04-25T11:57:04.930Z,17.50
2018-04-25T11:59:31.182Z,17.40
2018-04-25T12:01:57.587Z,17.80
2018-04-25T12:04:24.644Z,18.00
2018-04-25T12:06:51.814Z,18.00
2018-04-25T12:09:18.251Z,18.00
2018-04-25T12:11:44.529Z,18.00
2018-04-25T12:14:10.999Z,18.10
2018-04-25T12:16:38.003Z,18.30
2018-04-25T12:19:04.463Z,18.30
2018-04-25T12:21:31.480Z,18.50
2018-04-25T12:23:57.913Z,18.50
2018-04-25T12:26:24.356Z,18.60
2018-04-25T12:28:50.954Z,18.70
2018-04-25T12:31:17.237Z,18.50
2018-04-25T12:33:44.288Z,18.00
2018-04-25T12:36:11.412Z,18.00
2018-04-25T12:38:37.760Z,18.00
2018-04-25T12:41:04.881Z,17.70
2018-04-25T12:43:31.120Z,17.70
2018-04-25T12:45:58.001Z,17.50
2018-04-25T12:48:24.312Z,17.70
2018-04-25T12:50:51.650Z,17.90
2018-04-25T12:53:18.148Z,17.90
2018-04-25T12:55:44.428Z,17.90
2018-04-25T12:58:11.561Z,18.50
2018-04-25T13:00:37.889Z,18.40
2018-04-25T13:03:04.339Z,18.40
2018-04-25T13:05:31.363Z,19.00
2018-04-25T13:07:57.654Z,18.90
2018-04-25T13:10:24.157Z,18.60
2018-04-25T13:12:51.099Z,18.20
2018-04-25T13:15:18.533Z,17.90
2018-04-25T13:17:44.995Z,17.90
2018-04-25T13:20:11.418Z,17.60
2018-04-25T13:22:38.575Z,17.10
2018-04-25T13:25:05.699Z,16.70
2018-04-25T13:27:32.206Z,16.70
2018-04-25T13:29:59.123Z,16.30
2018-04-25T13:32:25.688Z,16.10
2018-04-25T13:34:52.038Z,15.90
2018-04-25T13:37:19.071Z,15.70
2018-04-25T13:39:45.423Z,15.50
2018-04-25T13:42:11.821Z,15.40
2018-04-25T13:44:38.468Z,15.20
2018-04-25T13:47:04.662Z,15.10
2018-04-25T13:49:30.935Z,15.10
2018-04-25T13:51:57.244Z,14.90
2018-04-25T13:54:23.585Z,14.80
2018-04-25T13:56:50.274Z,14.70
2018-04-25T13:59:16.787Z,14.60
2018-04-25T14:01:43.795Z,14.30
2018-04-25T14:04:11.308Z,14.30
2018-04-25T14:06:37.690Z,14.20
2018-04-25T14:09:04.072Z,14.10
2018-04-25T14:11:30.344Z,13.90
2018-04-25T14:13:56.888Z,13.70
2018-04-25T14:16:23.107Z,13.60
2018-04-25T14:18:49.410Z,13.60
2018-04-25T14:21:15.772Z,13.60
2018-04-25T14:23:42.115Z,13.70
2018-04-25T14:26:08.393Z,13.90
2018-04-25T14:28:34.709Z,14.20
2018-04-25T14:31:01.023Z,14.60
2018-04-25T14:33:28.051Z,15.20
2018-04-25T14:35:54.265Z,15.20
2018-04-25T14:38:20.509Z,15.50
2018-04-25T14:40:46.817Z,15.50
2018-04-25T14:43:13.149Z,15.70
2018-04-25T14:45:39.399Z,15.80
2018-04-25T14:48:05.743Z,15.80
2018-04-25T14:50:32.852Z,15.80
2018-04-25T14:52:59.183Z,15.80
2018-04-25T14:55:25.441Z,15.80
2018-04-25T14:57:51.755Z,15.70
2018-04-25T15:00:17.978Z,15.80
2018-04-25T15:02:44.412Z,15.60
2018-04-25T15:05:10.868Z,15.40
2018-04-25T15:07:37.823Z,15.20
2018-04-25T15:10:04.869Z,15.20
2018-04-25T15:12:31.151Z,15.20
2018-04-25T15:14:57.481Z,15.40
2018-04-25T15:17:23.812Z,15.40
2018-04-25T15:19:50.208Z,15.40
2018-04-25T15:22:17.359Z,15.50
2018-04-25T15:24:43.834Z,15.50
2018-04-25T15:27:10.123Z,15.60
2018-04-25T15:29:36.612Z,15.50
2018-04-25T15:32:03.022Z,15.50
2018-04-25T15:34:29.234Z,15.40
2018-04-25T15:36:55.666Z,15.40
2018-04-25T15:39:21.910Z,15.40
2018-04-25T15:41:48.263Z,15.50
2018-04-25T15:44:14.499Z,15.60
2018-04-25T15:46:41.496Z,15.80
2018-04-25T15:49:07.783Z,15.80
2018-04-25T15:51:34.637Z,15.80
2018-04-25T15:54:00.993Z,15.70
2018-04-25T15:56:27.245Z,15.80
2018-04-25T15:58:53.556Z,15.80
2018-04-25T16:01:19.945Z,15.70
2018-04-25T16:03:46.411Z,15.70
2018-04-25T16:06:12.593Z,15.70
2018-04-25T16:08:39.586Z,15.70
2018-04-25T16:11:20.718Z,15.70
2018-04-25T16:13:48.147Z,15.40
2018-04-25T16:16:15.106Z,15.30
2018-04-25T16:18:42.250Z,15.20
2018-04-25T16:21:08.757Z,15.20
2018-04-25T16:23:34.993Z,15.00
2018-04-25T16:26:01.384Z,14.70
2018-04-25T16:28:27.681Z,14.60
2018-04-25T16:30:53.902Z,14.30
2018-04-25T16:33:20.240Z,13.90
2018-04-25T16:35:47.231Z,13.10
2018-04-25T16:38:13.451Z,13.10
2018-04-25T16:40:39.973Z,12.80
2018-04-25T16:43:06.321Z,12.60
2018-04-25T16:45:32.615Z,12.60
2018-04-25T16:47:59.581Z,12.60
2018-04-25T16:50:26.165Z,12.60
2018-04-25T16:52:52.487Z,12.70
2018-04-25T16:55:18.894Z,12.70
2018-04-25T16:57:45.106Z,12.70
2018-04-25T17:00:11.433Z,12.50
2018-04-25T17:02:37.718Z,12.30
2018-04-25T17:05:05.688Z,12.00
2018-04-25T17:07:32.120Z,12.00
2018-04-25T17:09:58.348Z,11.90
2018-04-25T17:12:24.869Z,11.70
2018-04-25T17:14:51.114Z,11.60
2018-04-25T17:17:18.137Z,11.50
2018-04-25T17:19:44.430Z,11.40
2018-04-25T17:22:10.810Z,11.30
2018-04-25T17:24:37.195Z,11.20
2018-04-25T17:27:03.609Z,11.10
2018-04-25T17:29:30.115Z,11.10
2018-04-25T17:31:57.302Z,11.00
2018-04-25T17:34:23.712Z,11.00
2018-04-25T17:36:50.790Z,11.00
2018-04-25T17:39:17.053Z,11.00
2018-04-25T17:41:43.335Z,11.10
2018-04-25T17:44:09.516Z,11.10
2018-04-25T17:46:35.984Z,11.10
2018-04-25T17:49:03.014Z,11.30
2018-04-25T17:51:29.923Z,11.30
2018-04-25T17:53:56.258Z,11.30
2018-04-25T17:56:24.885Z,11.30
2018-04-25T17:58:51.895Z,11.20
2018-04-25T18:01:18.196Z,11.20
2018-04-25T18:03:44.657Z,11.20
2018-04-25T18:06:12.467Z,11.20
2018-04-25T18:08:39.121Z,11.20
2018-04-25T18:11:05.688Z,11.20
2018-04-25T18:13:32.218Z,11.20
2018-04-25T18:15:58.667Z,11.20
2018-04-25T18:18:26.517Z,11.10
2018-04-25T18:20:53.388Z,11.10
2018-04-25T18:23:19.664Z,11.10
2018-04-25T18:25:46.135Z,11.00
2018-04-25T18:28:13.314Z,10.90
2018-04-25T18:30:40.318Z,10.90
2018-04-25T18:33:06.754Z,10.90
2018-04-25T18:35:33.855Z,10.90
2018-04-25T18:38:00.395Z,10.90
2018-04-25T18:40:26.879Z,10.90
2018-04-25T18:42:53.113Z,10.80
2018-04-25T18:45:19.392Z,10.80
2018-04-25T18:47:45.762Z,10.90
2018-04-25T18:50:12.312Z,10.90
2018-04-25T18:52:39.329Z,10.80
2018-04-25T18:55:05.561Z,10.80
2018-04-25T18:57:31.943Z,10.80
2018-04-25T18:59:58.218Z,10.70
2018-04-25T19:02:24.572Z,10.70
2018-04-25T19:04:52.513Z,10.80
2018-04-25T19:07:18.801Z,10.80
2018-04-25T19:09:45.329Z,10.70
2018-04-25T19:12:11.560Z,10.70
2018-04-25T19:14:37.842Z,10.60
2018-04-25T19:17:04.427Z,10.60
2018-04-25T19:19:31.941Z,10.50
2018-04-25T19:21:58.921Z,10.50
2018-04-25T19:24:25.416Z,10.40
2018-04-25T19:26:51.714Z,10.40
2018-04-25T19:29:18.072Z,10.40
2018-04-25T19:31:44.821Z,10.40
2018-04-25T19:34:11.071Z,10.30
2018-04-25T19:36:38.222Z,10.30
2018-04-25T19:39:05.267Z,10.30
2018-04-25T19:41:32.424Z,10.30
2018-04-25T19:43:59.369Z,10.20
2018-04-25T19:46:33.280Z,10.20
2018-04-25T19:48:59.661Z,10.20
2018-04-25T19:51:25.941Z,10.30
2018-04-25T19:53:52.173Z,10.20
2018-04-25T19:56:18.498Z,10.20
2018-04-25T19:58:44.737Z,10.30
2018-04-25T20:01:11.130Z,10.40
2018-04-25T20:03:37.329Z,10.50
2018-04-25T20:06:03.637Z,10.50
2018-04-25T20:08:30.425Z,10.50
2018-04-25T20:10:57.382Z,10.60
2018-04-25T20:13:24.433Z,10.50
2018-04-25T20:15:51.484Z,10.50
2018-04-25T20:18:18.533Z,10.50
2018-04-25T20:20:45.836Z,10.50
2018-04-25T20:23:12.193Z,10.50
2018-04-25T20:25:38.537Z,10.50
2018-04-25T20:28:05.535Z,10.40
2018-04-25T20:30:32.753Z,10.40
2018-04-25T20:32:59.235Z,10.40
2018-04-25T20:35:26.016Z,10.40
2018-04-25T20:37:52.407Z,10.30
2018-04-25T20:40:18.770Z,10.30
2018-04-25T20:42:45.826Z,10.20
2018-04-25T20:45:12.042Z,10.10
2018-04-25T20:47:39.252Z,10.00
2018-04-25T20:50:05.685Z,10.00
2018-04-25T20:52:31.957Z,9.90
2018-04-25T20:54:58.953Z,9.70
2018-04-25T20:57:25.468Z,9.70
2018-04-25T20:59:51.734Z,9.70
2018-04-25T21:02:18.032Z,9.60
2018-04-25T21:04:44.458Z,9.50
2018-04-25T21:07:10.822Z,9.40
2018-04-25T21:09:37.166Z,9.40
2018-04-25T21:12:03.868Z,9.40
2018-04-25T21:14:30.411Z,9.30
2018-04-25T21:16:56.704Z,9.30
2018-04-25T21:19:23.793Z,9.30
2018-04-25T21:21:50.278Z,9.30
2018-04-25T21:24:16.457Z,9.20
2018-04-25T21:26:43.258Z,9.20
2018-04-25T21:29:09.477Z,9.20
2018-04-25T21:31:36.040Z,9.20
2018-04-25T21:34:02.356Z,9.20
2018-04-25T21:36:28.813Z,9.20
2018-04-25T21:38:55.085Z,9.20
2018-04-25T21:41:21.524Z,9.10
2018-04-25T21:43:47.857Z,9.10
2018-04-25T21:46:14.139Z,9.10
2018-04-25T21:48:41.237Z,9.00
2018-04-25T21:51:07.684Z,9.00
2018-04-25T21:53:34.111Z,9.00
2018-04-25T21:56:00.376Z,9.00
2018-04-25T21:58:26.739Z,9.00
2018-04-25T22:00:53.888Z,8.90
2018-04-25T22:03:20.195Z,8.80
2018-04-25T22:05:46.730Z,8.80
2018-04-25T22:08:12.969Z,8.80
2018-04-25T22:10:40.020Z,8.70
2018-04-25T22:13:07.307Z,8.70
2018-04-25T22:15:33.542Z,8.60
2018-04-25T22:17:59.855Z,8.70
2018-04-25T22:20:26.104Z,8.70
2018-04-25T22:22:52.369Z,8.70
2018-04-25T22:25:18.587Z,8.70
2018-04-25T22:27:44.798Z,8.80
2018-04-25T22:30:11.090Z,8.70
2018-04-25T22:32:37.895Z,8.70
2018-04-25T22:35:04.183Z,8.60
2018-04-25T22:37:30.453Z,8.60
2018-04-25T22:39:56.820Z,8.60
2018-04-25T22:42:23.399Z,8.50
2018-04-25T22:44:49.789Z,8.40
2018-04-25T22:47:16.135Z,8.40
2018-04-25T22:49:57.541Z,8.30
2018-04-25T22:52:23.730Z,8.20
2018-04-25T22:54:50.025Z,8.10
2018-04-25T22:57:17.050Z,7.90
2018-04-25T22:59:43.311Z,7.90
2018-04-25T23:02:10.308Z,7.80
2018-04-25T23:04:36.557Z,7.70
2018-04-25T23:07:02.777Z,7.70
2018-04-25T23:09:29.135Z,7.70
2018-04-25T23:11:56.039Z,7.70
2018-04-25T23:14:22.426Z,7.60
2018-04-25T23:16:48.596Z,7.60
2018-04-25T23:19:15.038Z,7.60
2018-04-25T23:21:41.190Z,7.50
2018-04-25T23:24:08.074Z,7.50
2018-04-25T23:26:34.959Z,7.50
2018-04-25T23:29:01.196Z,7.50
2018-04-25T23:31:28.157Z,7.60
2018-04-25T23:33:55.104Z,7.60
2018-04-25T23:36:21.430Z,7.60
2018-04-25T23:38:48.336Z,7.60
2018-04-25T23:41:14.657Z,7.50
2018-04-25T23:43:40.866Z,7.50
2018-04-25T23:46:07.117Z,7.50
2018-04-25T23:48:34.933Z,7.30
2018-04-25T23:51:01.296Z,7.30
2018-04-25T23:53:27.636Z,7.30
2018-04-25T23:55:53.798Z,7.20
2018-04-25T23:58:20.981Z,7.20
